Time;durP1;ratioP1;P1;durP2;ratioP2;P2;SDS_P1;SDS_P2;PMS_P1;PMS_P2;Temp;Humidity;BMP_temperature;BMP_pressure;BME280_temperature;BME280_humidity;BME280_pressure;Samples;Min_cycle;Max_cycle;Signal;HPM_P1;HPM_P2
2021/11/27 00:00:12;;;;;;;7.57;4.80;;;9.40;39.80;;;;;;6159966;23;20399;-84
2021/11/27 00:02:40;;;;;;;4.60;3.93;;;9.50;41.50;;;;;;6160114;23;20414;-86
2021/11/27 00:05:08;;;;;;;7.17;4.17;;;9.80;40.60;;;;;;6160121;23;20474;-85
2021/11/27 00:07:36;;;;;;;4.70;3.17;;;9.80;50.40;;;;;;6160003;23;20502;-86
2021/11/27 00:10:06;;;;;;;7.83;4.20;;;10.40;48.60;;;;;;6156827;23;20380;-86
2021/11/27 00:12:33;;;;;;;7.00;4.20;;;10.70;48.20;;;;;;6158315;23;20445;-86
2021/11/27 00:15:00;;;;;;;4.93;3.90;;;11.00;46.90;;;;;;6155535;23;20486;-86
2021/11/27 00:17:27;;;;;;;6.10;4.20;;;11.00;47.50;;;;;;6139708;23;20470;-86
2021/11/27 00:19:54;;;;;;;6.17;4.07;;;11.10;42.80;;;;;;6126062;23;20981;-86
2021/11/27 00:22:21;;;;;;;7.57;4.97;;;11.10;46.60;;;;;;6126544;23;20819;-85
2021/11/27 00:24:49;;;;;;;7.20;5.10;;;11.30;48.80;;;;;;6129199;23;20423;-86
2021/11/27 00:27:16;;;;;;;7.33;4.93;;;11.40;48.10;;;;;;6125961;23;20450;-86
2021/11/27 00:29:43;;;;;;;8.70;5.53;;;11.10;44.50;;;;;;6126099;23;20422;-86
2021/11/27 00:32:10;;;;;;;7.70;5.10;;;10.40;40.20;;;;;;6125277;23;20415;-85
2021/11/27 00:34:37;;;;;;;10.63;6.87;;;10.30;46.00;;;;;;6126594;23;20399;-85
2021/11/27 00:37:04;;;;;;;6.27;4.93;;;9.80;45.50;;;;;;6128902;23;20435;-86
2021/11/27 00:39:31;;;;;;;6.73;5.23;;;10.00;46.80;;;;;;6130033;23;20444;-86
2021/11/27 00:41:59;;;;;;;8.07;5.40;;;10.30;45.40;;;;;;6132958;23;20501;-86
2021/11/27 00:44:26;;;;;;;5.73;4.80;;;10.30;42.50;;;;;;6132078;23;20496;-85
2021/11/27 00:46:53;;;;;;;6.90;5.03;;;10.30;46.20;;;;;;6135609;23;20475;-85
2021/11/27 00:49:21;;;;;;;11.80;6.20;;;10.00;48.00;;;;;;6136296;23;20440;-85
2021/11/27 00:51:48;;;;;;;7.97;5.60;;;10.40;47.90;;;;;;6153336;23;20506;-85
2021/11/27 00:54:17;;;;;;;5.60;4.70;;;9.90;45.00;;;;;;6150527;23;20400;-86
2021/11/27 00:56:44;;;;;;;6.40;4.90;;;9.90;48.20;;;;;;6153643;23;20419;-88
2021/11/27 00:59:12;;;;;;;8.63;5.50;;;10.20;48.90;;;;;;6153954;23;20427;-86
2021/11/27 01:01:39;;;;;;;10.90;6.87;;;10.60;47.10;;;;;;6128418;23;20884;-85
2021/11/27 01:04:06;;;;;;;5.07;3.70;;;10.40;43.90;;;;;;6129050;23;20433;-85
2021/11/27 01:06:34;;;;;;;6.33;4.37;;;10.60;51.20;;;;;;6128143;23;20442;-86
2021/11/27 01:09:08;;;;;;;7.27;4.30;;;10.90;50.40;;;;;;6127740;23;20576;-86
2021/11/27 01:11:38;;;;;;;11.37;7.40;;;11.30;51.50;;;;;;6128080;23;20946;-86
2021/11/27 01:14:07;;;;;;;6.97;4.27;;;11.50;47.80;;;;;;6128770;23;20479;-86
2021/11/27 01:16:39;;;;;;;8.07;4.30;;;11.50;50.40;;;;;;6127622;23;20423;-86
2021/11/27 01:19:07;;;;;;;6.60;4.97;;;11.60;51.00;;;;;;6126997;23;20462;-86
2021/11/27 01:21:36;;;;;;;9.10;4.30;;;11.70;51.10;;;;;;6126492;23;20440;-86
2021/11/27 01:24:06;;;;;;;14.43;6.30;;;12.00;50.10;;;;;;6126759;23;20464;-86
2021/11/27 01:26:34;;;;;;;10.20;5.50;;;11.70;48.50;;;;;;6127803;23;20940;-86
2021/11/27 01:29:02;;;;;;;9.47;5.90;;;11.60;49.30;;;;;;6129768;23;20435;-86
2021/11/27 01:31:29;;;;;;;4.10;3.30;;;11.40;48.60;;;;;;6128031;23;20424;-86
2021/11/27 01:33:57;;;;;;;6.50;4.23;;;11.40;50.50;;;;;;6127506;23;20428;-85
2021/11/27 01:36:24;;;;;;;11.23;6.63;;;11.70;50.40;;;;;;6128375;23;20439;-86
2021/11/27 01:38:51;;;;;;;7.53;4.20;;;11.80;49.70;;;;;;6127538;23;20444;-86
2021/11/27 01:41:18;;;;;;;14.17;6.23;;;12.20;49.50;;;;;;6128154;23;20436;-86
2021/11/27 01:43:46;;;;;;;18.87;7.43;;;12.40;49.40;;;;;;6128335;23;20430;-86
2021/11/27 01:46:13;;;;;;;18.60;7.20;;;12.40;48.70;;;;;;6128089;23;20414;-85
2021/11/27 01:48:41;;;;;;;18.73;8.90;;;11.90;45.80;;;;;;6128729;23;20499;-86
2021/11/27 01:51:13;;;;;;;8.43;4.43;;;10.90;37.40;;;;;;6128573;23;20894;-86
2021/11/27 01:53:43;;;;;;;12.83;7.00;;;11.10;50.50;;;;;;6129564;23;20383;-86
2021/11/27 01:56:14;;;;;;;8.73;4.67;;;11.50;45.10;;;;;;6128707;23;20449;-86
2021/11/27 01:58:42;;;;;;;8.93;5.93;;;11.90;48.60;;;;;;6129086;23;20493;-86
2021/11/27 02:01:14;;;;;;;8.07;4.80;;;12.20;40.60;;;;;;6129256;23;20952;-86
2021/11/27 02:03:42;;;;;;;5.83;4.20;;;12.00;46.20;;;;;;6127727;23;20429;-86
2021/11/27 02:06:12;;;;;;;7.00;4.80;;;12.00;47.50;;;;;;6129127;23;20414;-86
2021/11/27 02:08:40;;;;;;;7.43;4.63;;;12.30;46.60;;;;;;6129265;23;20470;-86
2021/11/27 02:11:08;;;;;;;7.80;5.60;;;12.40;47.30;;;;;;6128608;23;20399;-86
2021/11/27 02:13:35;;;;;;;5.90;4.20;;;12.40;44.90;;;;;;6128359;23;20523;-86
2021/11/27 02:16:02;;;;;;;8.33;3.93;;;12.40;45.50;;;;;;6128331;23;20408;-86
2021/11/27 02:18:29;;;;;;;7.70;5.13;;;12.10;44.50;;;;;;6127981;23;20476;-86
2021/11/27 02:21:01;;;;;;;8.73;5.03;;;12.20;42.80;;;;;;6128440;23;20444;-86
2021/11/27 02:23:30;;;;;;;6.50;4.00;;;12.40;41.60;;;;;;6128211;23;20422;-86
2021/11/27 02:26:00;;;;;;;6.40;4.23;;;11.50;34.10;;;;;;6129269;23;20437;-87
2021/11/27 02:28:27;;;;;;;11.80;4.53;;;11.20;45.10;;;;;;6129470;23;20511;-87
2021/11/27 02:30:55;;;;;;;6.50;4.10;;;11.30;42.00;;;;;;6128956;23;20399;-87
2021/11/27 02:33:22;;;;;;;5.17;4.07;;;11.70;46.70;;;;;;6128753;23;20427;-87
2021/11/27 02:35:49;;;;;;;5.10;3.97;;;11.90;42.20;;;;;;6131420;23;20502;-86
2021/11/27 02:38:17;;;;;;;7.30;4.50;;;12.00;44.40;;;;;;6137465;23;20540;-86
2021/11/27 02:40:45;;;;;;;5.00;3.90;;;12.10;46.50;;;;;;6134624;23;20413;-86
2021/11/27 02:43:12;;;;;;;6.27;3.60;;;12.10;41.50;;;;;;6136021;23;20473;-87
2021/11/27 02:45:39;;;;;;;7.63;4.50;;;11.70;46.60;;;;;;6138682;23;20415;-87
2021/11/27 02:48:06;;;;;;;8.00;4.00;;;11.80;41.20;;;;;;6143477;23;20436;-86
2021/11/27 02:50:34;;;;;;;6.20;3.87;;;11.80;47.30;;;;;;6143229;23;20942;-85
2021/11/27 02:53:01;;;;;;;6.67;4.07;;;12.30;46.20;;;;;;6144130;23;20415;-86
2021/11/27 02:55:30;;;;;;;7.30;4.50;;;11.80;35.80;;;;;;6142146;23;20961;-84
2021/11/27 02:57:57;;;;;;;4.90;3.40;;;11.00;39.10;;;;;;6139151;23;20442;-85
2021/11/27 03:00:24;;;;;;;9.60;5.00;;;10.80;44.70;;;;;;6136925;23;20429;-84
2021/11/27 03:02:52;;;;;;;8.07;4.83;;;10.70;39.70;;;;;;6130690;23;20439;-86
2021/11/27 03:05:20;;;;;;;6.43;4.60;;;10.70;36.80;;;;;;6131728;23;20718;-85
2021/11/27 03:07:47;;;;;;;6.70;4.70;;;10.60;41.10;;;;;;6135998;23;20403;-86
2021/11/27 03:10:17;;;;;;;5.77;4.27;;;10.90;41.40;;;;;;6143699;23;20436;-85
2021/11/27 03:12:46;;;;;;;6.67;4.60;;;11.10;45.40;;;;;;6131477;23;20794;-85
2021/11/27 03:15:15;;;;;;;5.37;4.07;;;11.30;46.60;;;;;;6130832;23;20827;-86
2021/11/27 03:17:43;;;;;;;4.70;3.63;;;11.50;37.80;;;;;;6142922;23;20427;-86
2021/11/27 03:20:12;;;;;;;5.67;3.63;;;11.00;40.60;;;;;;6150710;23;20429;-85
2021/11/27 03:22:39;;;;;;;5.33;4.03;;;11.50;47.10;;;;;;6151601;23;20445;-87
2021/11/27 03:25:07;;;;;;;5.43;4.20;;;11.60;40.00;;;;;;6150544;23;20503;-85
2021/11/27 03:27:34;;;;;;;5.33;3.73;;;11.60;45.20;;;;;;6130270;23;20417;-86
2021/11/27 03:30:03;;;;;;;5.50;4.30;;;11.60;41.70;;;;;;6130497;23;20403;-85
2021/11/27 03:32:30;;;;;;;10.40;4.67;;;11.30;40.50;;;;;;6130236;23;20397;-85
2021/11/27 03:34:57;;;;;;;7.40;4.60;;;10.90;41.80;;;;;;6132548;23;20397;-86
2021/11/27 03:37:24;;;;;;;5.90;4.10;;;11.10;43.10;;;;;;6152537;23;20411;-86
2021/11/27 03:39:51;;;;;;;5.17;3.90;;;11.10;43.80;;;;;;6134973;23;20519;-85
2021/11/27 03:42:19;;;;;;;5.03;3.67;;;11.10;37.30;;;;;;6151082;23;20448;-85
2021/11/27 03:44:47;;;;;;;4.70;3.67;;;11.20;40.80;;;;;;6152159;23;20400;-86
2021/11/27 03:47:16;;;;;;;4.83;3.47;;;11.20;42.10;;;;;;6126583;23;20423;-85
2021/11/27 03:49:43;;;;;;;4.70;3.13;;;11.50;42.70;;;;;;6125898;23;20451;-85
2021/11/27 03:52:09;;;;;;;5.10;3.43;;;11.40;44.20;;;;;;6126802;23;20435;-85
2021/11/27 03:54:37;;;;;;;4.90;3.47;;;11.10;36.80;;;;;;6126853;23;20442;-85
2021/11/27 03:57:04;;;;;;;3.50;3.00;;;11.20;44.60;;;;;;6126811;23;20491;-86
2021/11/27 03:59:31;;;;;;;4.30;3.60;;;11.60;46.20;;;;;;6126320;23;20500;-85
2021/11/27 04:01:58;;;;;;;5.23;3.37;;;11.60;36.30;;;;;;6126224;23;20471;-85
2021/11/27 04:04:26;;;;;;;4.60;3.60;;;11.40;41.90;;;;;;6126184;23;20507;-85
2021/11/27 04:06:53;;;;;;;6.80;4.37;;;11.50;44.00;;;;;;6127044;23;20488;-87
2021/11/27 04:09:20;;;;;;;4.30;3.43;;;11.50;40.60;;;;;;6126596;23;20513;-85
2021/11/27 04:11:47;;;;;;;6.03;4.20;;;11.50;41.30;;;;;;6126781;23;20500;-85
2021/11/27 04:14:14;;;;;;;8.87;4.10;;;11.40;36.70;;;;;;6126590;23;20709;-85
2021/11/27 04:16:41;;;;;;;4.87;3.67;;;11.00;41.00;;;;;;6127539;23;20510;-85
2021/11/27 04:19:07;;;;;;;5.17;4.00;;;11.10;43.60;;;;;;6127613;23;20513;-85
2021/11/27 04:21:36;;;;;;;6.17;4.27;;;11.10;38.30;;;;;;6127452;23;20446;-85
2021/11/27 04:24:03;;;;;;;6.73;4.70;;;11.00;42.40;;;;;;6128340;23;20478;-85
2021/11/27 04:26:30;;;;;;;6.80;5.03;;;10.50;39.90;;;;;;6127766;23;20479;-85
2021/11/27 04:28:57;;;;;;;5.30;4.00;;;10.60;38.80;;;;;;6127496;23;20416;-86
2021/11/27 04:31:24;;;;;;;5.70;3.47;;;10.50;38.00;;;;;;6127741;23;20479;-85
2021/11/27 04:33:52;;;;;;;6.70;4.60;;;10.30;41.40;;;;;;6127521;23;20396;-85
2021/11/27 04:36:20;;;;;;;6.47;4.20;;;10.40;38.40;;;;;;6127374;23;20422;-85
2021/11/27 04:38:49;;;;;;;5.93;3.50;;;10.60;44.90;;;;;;6126374;23;20494;-85
2021/11/27 04:41:16;;;;;;;6.80;3.87;;;10.80;43.70;;;;;;6127454;23;20443;-85
2021/11/27 04:43:43;;;;;;;4.10;3.47;;;10.50;37.70;;;;;;6127160;23;21016;-85
2021/11/27 04:46:10;;;;;;;6.00;4.17;;;10.30;44.70;;;;;;6127249;23;20892;-85
2021/11/27 04:48:37;;;;;;;8.97;4.60;;;10.50;46.00;;;;;;6127187;23;20494;-85
2021/11/27 04:51:05;;;;;;;4.80;3.40;;;10.30;37.00;;;;;;6127496;23;20450;-85
2021/11/27 04:53:32;;;;;;;5.20;3.50;;;10.30;40.60;;;;;;6127528;23;20573;-85
2021/11/27 04:56:00;;;;;;;6.87;3.60;;;10.60;46.70;;;;;;6127411;23;20442;-85
2021/11/27 04:58:27;;;;;;;4.20;3.00;;;10.70;43.10;;;;;;6127365;23;20435;-85
2021/11/27 05:00:55;;;;;;;4.57;3.57;;;11.10;45.50;;;;;;6127612;23;20484;-86
2021/11/27 05:03:22;;;;;;;6.50;4.13;;;11.10;40.20;;;;;;6127695;23;20874;-85
2021/11/27 05:05:49;;;;;;;5.50;3.70;;;11.10;37.90;;;;;;6127583;23;20407;-85
2021/11/27 05:08:17;;;;;;;5.80;3.90;;;11.00;38.80;;;;;;6127262;23;20960;-85
2021/11/27 05:10:44;;;;;;;4.53;3.77;;;11.40;42.10;;;;;;6127428;23;20491;-86
2021/11/27 05:13:14;;;;;;;4.10;3.40;;;11.20;42.30;;;;;;6127907;23;20533;-86
2021/11/27 05:15:42;;;;;;;6.27;3.70;;;11.50;44.60;;;;;;6127599;23;20458;-86
2021/11/27 05:18:09;;;;;;;6.80;4.27;;;11.60;45.00;;;;;;6127203;23;20542;-86
2021/11/27 05:20:36;;;;;;;4.27;3.50;;;11.70;37.70;;;;;;6127411;23;20495;-86
2021/11/27 05:23:03;;;;;;;5.40;3.20;;;11.80;45.40;;;;;;6127332;23;20522;-86
2021/11/27 05:25:30;;;;;;;6.67;5.00;;;11.40;34.60;;;;;;6127288;23;20431;-86
2021/11/27 05:27:57;;;;;;;3.77;3.43;;;11.00;38.10;;;;;;6127912;23;20518;-86
2021/11/27 05:30:27;;;;;;;4.73;3.60;;;10.80;41.40;;;;;;6127862;23;20968;-86
2021/11/27 05:33:12;;;;;;;5.40;3.70;;;11.10;39.80;;;;;;6127959;23;20412;-86
2021/11/27 05:35:40;;;;;;;5.17;3.43;;;11.20;44.80;;;;;;6127301;23;20870;-86
2021/11/27 05:38:09;;;;;;;7.70;3.03;;;11.20;39.90;;;;;;6127301;23;20549;-86
2021/11/27 05:40:36;;;;;;;2.70;2.43;;;10.50;42.00;;;;;;6126325;23;20900;-86
2021/11/27 05:43:03;;;;;;;2.60;2.50;;;9.30;40.70;;;;;;6126952;23;20764;-86
2021/11/27 05:45:32;;;;;;;2.80;2.60;;;9.20;46.90;;;;;;6127335;23;20488;-86
2021/11/27 05:48:00;;;;;;;3.23;2.30;;;9.20;43.40;;;;;;6127107;23;20439;-86
2021/11/27 05:50:29;;;;;;;3.60;2.53;;;8.60;45.50;;;;;;6127736;23;20478;-85
2021/11/27 05:52:56;;;;;;;2.80;2.40;;;8.40;49.20;;;;;;6127753;23;20767;-86
2021/11/27 05:55:23;;;;;;;5.83;2.43;;;8.60;47.40;;;;;;6127131;23;20479;-85
2021/11/27 05:57:50;;;;;;;3.10;2.70;;;8.60;46.80;;;;;;6127193;23;20420;-86
2021/11/27 06:00:17;;;;;;;2.90;2.53;;;8.40;47.50;;;;;;6127277;23;20392;-86
2021/11/27 06:02:46;;;;;;;2.93;2.40;;;8.50;48.00;;;;;;6126865;23;20991;-85
2021/11/27 06:05:13;;;;;;;2.93;2.30;;;8.40;47.00;;;;;;6125928;23;20417;-85
2021/11/27 06:07:40;;;;;;;2.87;2.57;;;8.10;47.30;;;;;;6129504;23;20498;-85
2021/11/27 06:10:08;;;;;;;2.97;2.33;;;8.10;47.60;;;;;;6131447;23;20399;-85
2021/11/27 06:12:36;;;;;;;2.37;2.20;;;8.20;52.10;;;;;;6130086;23;20419;-85
2021/11/27 06:15:05;;;;;;;3.33;2.80;;;8.50;51.20;;;;;;6132315;23;20501;-85
2021/11/27 06:17:32;;;;;;;2.60;2.47;;;8.40;49.40;;;;;;6131769;23;20430;-86
2021/11/27 06:20:00;;;;;;;3.90;2.47;;;8.70;48.60;;;;;;6132470;23;20428;-85
2021/11/27 06:22:27;;;;;;;3.97;2.57;;;8.60;47.80;;;;;;6153244;23;20446;-88
2021/11/27 06:24:54;;;;;;;2.93;2.27;;;8.80;48.10;;;;;;6140194;23;20466;-85
2021/11/27 06:27:21;;;;;;;3.30;2.70;;;8.90;48.90;;;;;;6150338;23;20409;-88
2021/11/27 06:29:49;;;;;;;2.80;2.47;;;9.30;48.60;;;;;;6153395;23;20411;-86
2021/11/27 06:32:16;;;;;;;2.70;2.47;;;9.10;49.70;;;;;;6129733;23;20427;-85
2021/11/27 06:34:43;;;;;;;3.30;2.57;;;9.50;50.10;;;;;;6126670;23;20400;-86
2021/11/27 06:37:12;;;;;;;3.00;2.60;;;9.20;49.90;;;;;;6127018;23;20429;-86
2021/11/27 06:39:39;;;;;;;8.40;2.10;;;9.40;52.50;;;;;;6127587;23;20502;-85
2021/11/27 06:42:06;;;;;;;2.80;2.57;;;9.20;48.60;;;;;;6127366;23;20447;-84
2021/11/27 06:44:34;;;;;;;3.10;2.40;;;9.70;52.30;;;;;;6125880;23;20791;-85
2021/11/27 06:47:01;;;;;;;3.50;2.40;;;9.80;50.30;;;;;;6128212;23;20490;-84
2021/11/27 06:49:28;;;;;;;2.77;2.37;;;9.80;46.20;;;;;;6126975;23;20491;-84
2021/11/27 06:51:55;;;;;;;2.70;2.30;;;9.80;52.00;;;;;;6126915;23;20416;-85
2021/11/27 06:54:23;;;;;;;2.30;2.10;;;9.70;46.30;;;;;;6128149;23;20439;-85
2021/11/27 06:56:50;;;;;;;3.00;2.20;;;9.60;50.10;;;;;;6126610;23;20415;-84
2021/11/27 06:59:17;;;;;;;3.03;2.23;;;9.50;48.50;;;;;;6126099;23;20491;-85
2021/11/27 07:01:44;;;;;;;3.20;2.40;;;8.80;47.80;;;;;;6127088;23;20403;-85
2021/11/27 07:04:12;;;;;;;2.27;2.17;;;8.30;49.10;;;;;;6128585;23;20470;-85
2021/11/27 07:06:39;;;;;;;8.70;5.23;;;8.30;49.10;;;;;;6149233;23;20411;-85
2021/11/27 07:09:07;;;;;;;2.77;2.30;;;8.20;49.80;;;;;;6140140;23;20420;-85
2021/11/27 07:11:35;;;;;;;3.37;2.43;;;8.40;52.60;;;;;;6141301;23;20396;-85
2021/11/27 07:14:02;;;;;;;2.97;2.37;;;8.90;50.90;;;;;;6138033;23;20795;-85
2021/11/27 07:16:29;;;;;;;2.80;2.37;;;9.70;50.30;;;;;;6128137;23;20731;-85
2021/11/27 07:18:56;;;;;;;5.17;2.40;;;9.60;48.70;;;;;;6128079;23;20753;-85
2021/11/27 07:21:23;;;;;;;3.97;2.50;;;9.50;45.20;;;;;;6127144;23;20446;-85
2021/11/27 07:23:50;;;;;;;2.70;2.30;;;9.70;46.60;;;;;;6126363;23;20813;-86
2021/11/27 07:26:17;;;;;;;2.50;2.33;;;9.80;48.10;;;;;;6125355;23;20492;-86
2021/11/27 07:28:46;;;;;;;2.97;2.30;;;10.00;44.70;;;;;;6126369;23;20522;-86
2021/11/27 07:31:13;;;;;;;3.07;2.40;;;10.20;46.10;;;;;;6127218;23;20395;-86
2021/11/27 07:33:40;;;;;;;2.60;2.37;;;10.10;47.00;;;;;;6127257;23;20806;-85
2021/11/27 07:36:07;;;;;;;4.50;3.10;;;10.10;46.00;;;;;;6127441;23;20490;-86
2021/11/27 07:38:34;;;;;;;3.53;2.80;;;10.30;44.10;;;;;;6129070;23;20451;-85
2021/11/27 07:41:03;;;;;;;4.03;2.70;;;10.30;44.30;;;;;;6126813;23;20503;-85
2021/11/27 07:43:30;;;;;;;2.20;2.00;;;10.30;46.00;;;;;;6126669;23;20471;-85
2021/11/27 07:45:59;;;;;;;2.43;2.20;;;10.40;47.80;;;;;;6126692;23;20415;-85
2021/11/27 07:48:31;;;;;;;2.83;2.60;;;10.60;47.80;;;;;;6127548;23;20495;-86
2021/11/27 07:50:57;;;;;;;2.73;2.60;;;10.40;45.70;;;;;;6127340;23;20405;-85
2021/11/27 07:53:24;;;;;;;3.10;2.60;;;10.50;45.20;;;;;;6127547;23;20434;-85
2021/11/27 07:55:51;;;;;;;2.83;2.50;;;10.00;43.60;;;;;;6127040;23;20446;-85
2021/11/27 07:58:18;;;;;;;2.80;2.10;;;10.30;44.50;;;;;;6127856;23;20977;-86
2021/11/27 08:00:45;;;;;;;3.50;2.27;;;10.10;43.20;;;;;;6126732;23;20478;-85
2021/11/27 08:03:13;;;;;;;2.70;2.40;;;10.50;46.10;;;;;;6128710;23;20475;-85
2021/11/27 08:05:40;;;;;;;2.50;2.30;;;10.90;47.00;;;;;;6132852;23;20453;-85
2021/11/27 08:08:08;;;;;;;2.60;2.17;;;10.90;44.40;;;;;;6133842;23;20974;-86
2021/11/27 08:10:35;;;;;;;2.43;2.03;;;10.70;44.80;;;;;;6130411;23;20424;-86
2021/11/27 08:13:01;;;;;;;2.33;2.20;;;9.80;43.60;;;;;;6129388;23;20927;-86
2021/11/27 08:15:29;;;;;;;2.83;2.40;;;9.80;46.80;;;;;;6133134;23;20407;-86
2021/11/27 08:17:56;;;;;;;2.60;2.20;;;9.90;48.20;;;;;;6130673;23;20443;-86
2021/11/27 08:20:24;;;;;;;3.63;2.70;;;10.40;47.80;;;;;;6131354;23;20438;-86
2021/11/27 08:22:51;;;;;;;3.57;2.50;;;10.70;42.20;;;;;;6130903;23;20539;-86
2021/11/27 08:25:18;;;;;;;3.23;2.60;;;10.70;43.50;;;;;;6135092;23;20411;-85
2021/11/27 08:27:45;;;;;;;3.17;2.60;;;11.00;46.00;;;;;;6143544;23;20389;-86
2021/11/27 08:30:12;;;;;;;2.40;2.30;;;10.80;43.90;;;;;;6144724;23;20423;-85
2021/11/27 08:32:40;;;;;;;4.20;2.70;;;10.70;42.50;;;;;;6140696;23;20416;-84
2021/11/27 08:35:07;;;;;;;2.30;2.20;;;10.80;43.80;;;;;;6132672;23;20499;-85
2021/11/27 08:37:36;;;;;;;2.73;2.40;;;10.90;46.60;;;;;;6133524;23;20735;-84
2021/11/27 08:40:06;;;;;;;2.83;2.57;;;11.00;45.70;;;;;;6130970;23;20397;-84
2021/11/27 08:42:33;;;;;;;2.90;2.60;;;11.30;44.80;;;;;;6133326;23;20427;-85
2021/11/27 08:45:00;;;;;;;10.33;3.17;;;11.40;43.80;;;;;;6131716;23;20450;-85
2021/11/27 08:47:27;;;;;;;5.50;2.20;;;11.80;44.50;;;;;;6132089;23;20778;-85
2021/11/27 08:49:55;;;;;;;4.83;3.00;;;11.80;44.20;;;;;;6130160;23;20512;-85
2021/11/27 08:52:22;;;;;;;2.43;2.33;;;12.00;41.40;;;;;;6135792;23;20427;-85
2021/11/27 08:54:51;;;;;;;4.10;3.20;;;12.00;45.10;;;;;;6136480;23;20488;-87
2021/11/27 08:57:18;;;;;;;3.77;2.90;;;12.00;41.20;;;;;;6138936;23;20416;-87
2021/11/27 08:59:45;;;;;;;4.30;3.30;;;11.90;39.20;;;;;;6137011;23;20444;-88
2021/11/27 09:02:13;;;;;;;12.27;2.90;;;11.50;40.30;;;;;;6146227;23;20493;-87
2021/11/27 09:04:40;;;;;;;3.23;2.87;;;11.40;40.90;;;;;;6147788;23;20442;-87
2021/11/27 09:07:07;;;;;;;4.30;2.70;;;11.30;40.80;;;;;;6151282;23;20402;-88
2021/11/27 09:09:35;;;;;;;3.60;2.70;;;11.40;41.20;;;;;;6150413;23;20449;-87
2021/11/27 09:12:06;;;;;;;5.33;3.00;;;11.50;40.50;;;;;;6148090;23;20409;-90
2021/11/27 09:14:34;;;;;;;4.30;3.00;;;11.80;41.50;;;;;;6154672;23;20421;-89
2021/11/27 09:17:01;;;;;;;5.07;2.57;;;11.60;39.00;;;;;;6143290;23;20449;-88
2021/11/27 09:19:29;;;;;;;4.87;2.87;;;11.60;41.00;;;;;;6134978;23;20518;-88
2021/11/27 09:21:56;;;;;;;4.70;2.50;;;11.60;40.50;;;;;;6137985;23;20428;-88
2021/11/27 09:24:23;;;;;;;2.73;2.47;;;11.50;39.30;;;;;;6135858;23;20468;-87
2021/11/27 09:26:51;;;;;;;6.33;3.27;;;10.90;41.20;;;;;;6147225;23;20419;-87
2021/11/27 09:29:20;;;;;;;3.60;2.60;;;10.40;43.70;;;;;;6139700;23;20444;-87
2021/11/27 09:31:48;;;;;;;4.23;2.50;;;10.10;43.00;;;;;;6133539;23;20415;-88
2021/11/27 09:34:16;;;;;;;3.60;2.87;;;10.20;44.10;;;;;;6144001;23;20456;-87
2021/11/27 09:36:44;;;;;;;4.13;2.53;;;10.50;42.30;;;;;;6139463;23;20429;-87
2021/11/27 09:39:14;;;;;;;5.00;2.93;;;10.40;43.30;;;;;;6129431;23;20423;-87
2021/11/27 09:41:43;;;;;;;7.63;3.00;;;10.90;41.80;;;;;;6143459;23;20435;-87
2021/11/27 09:44:12;;;;;;;2.97;2.47;;;11.20;41.00;;;;;;6140349;23;20434;-87
2021/11/27 09:46:42;;;;;;;4.93;2.67;;;11.10;38.50;;;;;;6144064;23;20426;-87
2021/11/27 09:49:12;;;;;;;3.03;2.60;;;10.90;39.70;;;;;;6149801;23;20427;-88
2021/11/27 09:51:40;;;;;;;8.20;2.80;;;11.00;42.70;;;;;;6154334;23;20431;-88
2021/11/27 09:54:09;;;;;;;5.97;2.70;;;10.70;39.70;;;;;;6153750;23;20437;-87
2021/11/27 09:56:36;;;;;;;4.00;2.50;;;10.30;42.50;;;;;;6146990;23;20421;-86
2021/11/27 09:59:04;;;;;;;3.50;2.63;;;10.30;40.60;;;;;;6139531;23;20435;-86
2021/11/27 10:01:33;;;;;;;4.30;2.50;;;10.50;39.60;;;;;;6135648;23;20908;-86
2021/11/27 10:04:04;;;;;;;4.10;2.67;;;10.50;40.20;;;;;;6129542;23;20495;-86
2021/11/27 10:06:32;;;;;;;4.20;2.67;;;10.20;39.50;;;;;;6128483;23;20570;-86
2021/11/27 10:09:16;;;;;;;4.90;3.00;;;9.90;40.80;;;;;;6139160;23;20434;-86
2021/11/27 10:11:46;;;;;;;8.70;2.70;;;9.90;43.70;;;;;;6138812;23;20419;-86
2021/11/27 10:14:14;;;;;;;4.70;2.70;;;9.70;40.90;;;;;;6135543;23;20408;-86
2021/11/27 10:17:06;;;;;;;3.23;2.10;;;9.80;41.90;;;;;;6132260;23;21005;-86
2021/11/27 10:19:51;;;;;;;6.47;2.40;;;10.50;44.50;;;;;;6128451;23;20423;-86
2021/11/27 10:22:25;;;;;;;5.00;2.30;;;11.10;37.80;;;;;;6129698;23;20733;-87
2021/11/27 10:24:53;;;;;;;7.90;2.77;;;10.40;38.60;;;;;;6127908;23;20437;-87
2021/11/27 10:27:25;;;;;;;3.73;2.70;;;10.00;38.30;;;;;;6130439;23;20406;-86
2021/11/27 10:30:00;;;;;;;12.03;6.53;;;10.40;40.30;;;;;;6129658;23;20415;-86
2021/11/27 10:32:32;;;;;;;3.63;2.37;;;9.90;38.60;;;;;;6128980;23;20388;-86
2021/11/27 10:35:01;;;;;;;7.30;2.40;;;9.70;40.60;;;;;;6135830;23;20417;-86
2021/11/27 10:37:29;;;;;;;8.07;2.50;;;10.10;41.50;;;;;;6138904;23;20418;-86
2021/11/27 10:40:01;;;;;;;3.60;2.43;;;9.80;40.40;;;;;;6135942;23;20438;-87
2021/11/27 10:42:41;;;;;;;4.77;2.57;;;9.50;41.20;;;;;;6137157;23;20443;-87
2021/11/27 10:45:32;;;;;;;4.73;2.20;;;9.40;41.60;;;;;;6137527;23;20770;-87
2021/11/27 10:48:43;;;;;;;3.97;2.40;;;9.20;41.70;;;;;;6157770;23;20451;-87
2021/11/27 10:57:37;;;;;;;2.73;2.23;;;10.10;42.10;;;;;;6083983;23;20446;-88
2021/11/27 11:04:09;;;;;;;2.90;2.27;;;9.60;44.40;;;;;;5971776;24;20392;-90
2021/11/27 11:13:57;;;;;;;3.33;2.67;;;9.70;42.70;;;;;;5867470;24;20412;-89
2021/11/27 11:16:34;;;;;;;7.80;2.30;;;9.40;45.30;;;;;;6085001;23;20462;-90
2021/11/27 11:19:20;;;;;;;4.57;2.33;;;9.60;46.00;;;;;;6142301;23;20446;-92
2021/11/27 11:22:09;;;;;;;2.47;2.30;;;9.20;47.50;;;;;;6147092;23;20419;-89
2021/11/27 11:24:37;;;;;;;2.30;2.10;;;8.40;50.10;;;;;;6146141;23;20451;-89
2021/11/27 11:27:11;;;;;;;2.83;2.00;;;8.20;52.00;;;;;;6138465;23;20456;-89
2021/11/27 11:29:46;;;;;;;2.70;1.93;;;8.10;52.20;;;;;;6141578;23;20432;-89
2021/11/27 11:32:39;;;;;;;2.90;2.20;;;8.40;49.80;;;;;;6144898;23;20415;-90
2021/11/27 11:35:15;;;;;;;2.00;1.90;;;8.40;52.10;;;;;;6134973;23;20408;-88
2021/11/27 11:37:42;;;;;;;2.90;1.80;;;8.80;49.80;;;;;;6133666;23;20435;-89
2021/11/27 11:40:17;;;;;;;2.30;2.13;;;9.30;49.40;;;;;;6131876;23;20411;-89
2021/11/27 11:42:49;;;;;;;2.40;2.03;;;9.60;47.60;;;;;;6135997;23;20397;-89
2021/11/27 11:45:21;;;;;;;2.57;2.23;;;9.50;46.60;;;;;;6134877;23;20506;-89
2021/11/27 11:47:56;;;;;;;6.60;2.13;;;9.30;47.30;;;;;;6141129;23;20408;-88
2021/11/27 11:50:33;;;;;;;5.10;2.40;;;9.50;45.00;;;;;;6151827;23;20379;-89
2021/11/27 11:53:12;;;;;;;1.97;1.90;;;8.90;49.60;;;;;;6142541;23;20396;-87
2021/11/27 11:59:25;;;;;;;1.80;1.80;;;9.00;48.80;;;;;;6120798;23;20561;-89
2021/11/27 12:02:50;;;;;;;2.40;1.97;;;8.60;49.30;;;;;;6133268;23;20421;-90
2021/11/27 12:05:27;;;;;;;2.33;2.20;;;8.90;49.10;;;;;;6135382;23;20436;-89
2021/11/27 12:08:01;;;;;;;3.13;2.37;;;9.00;49.60;;;;;;6129375;23;20471;-87
2021/11/27 12:10:38;;;;;;;3.03;2.30;;;9.70;47.70;;;;;;6137323;23;20405;-90
2021/11/27 12:13:36;;;;;;;2.70;2.20;;;9.40;48.00;;;;;;6134898;23;20465;-89
2021/11/27 12:16:25;;;;;;;5.77;2.50;;;9.70;47.30;;;;;;6130577;23;20528;-88
2021/11/27 12:19:47;;;;;;;3.10;2.20;;;9.80;45.90;;;;;;6127989;23;20409;-88
2021/11/27 12:22:43;;;;;;;2.53;2.10;;;9.80;49.20;;;;;;6137945;23;20410;-89
2021/11/27 12:25:22;;;;;;;3.37;2.60;;;9.70;46.00;;;;;;6144214;23;20414;-89
2021/11/27 12:28:17;;;;;;;3.43;2.43;;;9.90;47.20;;;;;;6129057;23;20613;-88
2021/11/27 12:31:11;;;;;;;3.20;2.20;;;10.10;46.00;;;;;;6128488;23;20376;-89
2021/11/27 12:33:45;;;;;;;3.70;2.43;;;9.60;46.50;;;;;;6129389;23;20426;-89
2021/11/27 12:36:47;;;;;;;3.73;2.37;;;9.70;47.40;;;;;;6131631;23;20389;-89
2021/11/27 12:39:34;;;;;;;3.13;2.40;;;10.20;43.40;;;;;;6133596;23;20418;-90
2021/11/27 12:42:22;;;;;;;3.23;2.30;;;10.80;46.20;;;;;;6071768;23;20471;-89
2021/11/27 12:45:07;;;;;;;2.33;2.17;;;10.50;40.80;;;;;;6070927;23;20452;-90
2021/11/27 12:47:49;;;;;;;2.90;2.40;;;9.90;44.70;;;;;;6072486;23;20415;-89
2021/11/27 12:50:34;;;;;;;2.77;2.30;;;10.20;43.10;;;;;;6076037;23;20445;-88
2021/11/27 12:53:11;;;;;;;2.90;2.43;;;9.50;45.00;;;;;;6078600;23;20405;-88
2021/11/27 12:55:43;;;;;;;6.20;3.43;;;9.70;44.60;;;;;;6074756;23;20420;-89
2021/11/27 12:58:35;;;;;;;6.67;2.90;;;9.10;44.60;;;;;;6069196;23;20443;-89
2021/11/27 13:01:03;;;;;;;2.67;2.40;;;9.10;45.70;;;;;;6017219;23;20421;-89
2021/11/27 13:06:31;;;;;;;5.90;2.70;;;9.10;49.70;;;;;;6069792;23;20394;-89
2021/11/27 13:09:17;;;;;;;2.50;2.30;;;8.00;53.40;;;;;;6088389;23;20465;-90
2021/11/27 13:11:48;;;;;;;3.00;2.57;;;7.60;57.90;;;;;;6069926;23;20465;-89
2021/11/27 13:14:24;;;;;;;2.30;2.10;;;7.60;59.80;;;;;;6081805;23;20413;-91
2021/11/27 13:17:20;;;;;;;2.20;2.00;;;8.30;56.00;;;;;;6067996;23;20409;-91
2021/11/27 13:19:58;;;;;;;2.43;2.23;;;8.10;59.00;;;;;;6128334;23;20449;-92
2021/11/27 13:22:57;;;;;;;2.53;2.33;;;8.60;56.60;;;;;;6177722;23;20406;-91
2021/11/27 13:25:26;;;;;;;2.43;2.30;;;9.00;53.10;;;;;;6176198;23;20987;-91
2021/11/27 13:28:01;;;;;;;2.53;2.30;;;8.50;54.40;;;;;;6152785;23;20402;-91
2021/11/27 13:30:37;;;;;;;3.80;2.73;;;9.10;54.10;;;;;;6180481;23;20433;-91